Time;durP1;ratioP1;P1;durP2;ratioP2;P2;SDS_P1;SDS_P2;PMS_P1;PMS_P2;Temp;Humidity;BMP_temperature;BMP_pressure;BME280_temperature;BME280_humidity;BME280_pressure;Samples;Min_cycle;Max_cycle;Signal;HPM_P1;HPM_P2
2022/06/25 00:00:59;;;;;;;5.10;3.10;;;;;;;;;;5092496;28;20111;-53
2022/06/25 00:03:24;;;;;;;6.13;3.30;;;;;;;;;;5092727;28;20032;-43
2022/06/25 00:05:50;;;;;;;8.18;3.53;;;;;;;;;;5092482;28;20024;-47
2022/06/25 00:08:15;;;;;;;5.93;3.17;;;;;;;;;;5092556;28;20495;-36
2022/06/25 00:10:41;;;;;;;5.70;3.15;;;;;;;;;;5092367;28;20104;-37
2022/06/25 00:13:07;;;;;;;7.20;3.42;;;;;;;;;;5092368;28;20472;-36
2022/06/25 00:15:32;;;;;;;4.38;3.30;;;;;;;;;;5092687;28;20035;-63
2022/06/25 00:17:58;;;;;;;4.32;3.20;;;;;;;;;;5092521;28;20024;-37
2022/06/25 00:20:23;;;;;;;3.25;3.00;;;;;;;;;;5092021;28;20051;-37
2022/06/25 00:22:49;;;;;;;4.50;3.25;;;;;;;;;;5092512;28;20039;-37
2022/06/25 00:25:14;;;;;;;4.97;3.22;;;;;;;;;;5092241;28;20043;-48
2022/06/25 00:27:40;;;;;;;5.95;3.00;;;;;;;;;;5092156;28;20024;-37
2022/06/25 00:30:06;;;;;;;3.30;2.97;;;;;;;;;;5092518;28;20032;-40
2022/06/25 00:32:32;;;;;;;3.45;3.15;;;;;;;;;;5092579;28;20101;-42
2022/06/25 00:34:57;;;;;;;4.88;3.08;;;;;;;;;;5092634;28;20456;-59
2022/06/25 00:37:23;;;;;;;5.40;3.28;;;;;;;;;;5093685;28;20480;-44
2022/06/25 00:39:49;;;;;;;4.93;3.13;;;;;;;;;;5096145;28;20513;-38
2022/06/25 00:42:14;;;;;;;4.65;3.30;;;;;;;;;;5096535;28;20032;-42
2022/06/25 00:44:40;;;;;;;6.65;3.33;;;;;;;;;;5096450;28;20495;-43
2022/06/25 00:47:12;;;;;;;3.70;3.35;;;;;;;;;;5096461;28;20518;-36
2022/06/25 00:49:39;;;;;;;5.03;3.13;;;;;;;;;;5096124;28;20443;-37
2022/06/25 00:52:18;;;;;;;5.32;3.42;;;;;;;;;;5096007;28;20549;-37
2022/06/25 00:55:04;;;;;;;3.92;3.60;;;;;;;;;;5096009;28;20028;-37
2022/06/25 00:57:33;;;;;;;6.65;3.60;;;;;;;;;;5096251;28;20028;-39
2022/06/25 01:00:07;;;;;;;4.05;3.65;;;;;;;;;;5096072;28;20081;-37
2022/06/25 01:02:33;;;;;;;4.88;3.70;;;;;;;;;;5095899;28;20521;-59
2022/06/25 01:04:59;;;;;;;8.70;3.70;;;;;;;;;;5096075;28;20020;-37
2022/06/25 01:07:24;;;;;;;5.68;3.78;;;;;;;;;;5078012;28;20476;-37
2022/06/25 01:09:51;;;;;;;6.53;3.72;;;;;;;;;;5095667;28;20023;-43
2022/06/25 01:12:17;;;;;;;5.50;3.45;;;;;;;;;;5095905;28;20028;-42
2022/06/25 01:14:43;;;;;;;3.90;3.55;;;;;;;;;;5095609;28;20024;-40
2022/06/25 01:17:09;;;;;;;3.80;3.42;;;;;;;;;;5095571;28;20049;-61
2022/06/25 01:19:36;;;;;;;4.10;3.70;;;;;;;;;;5095411;28;20039;-37
2022/06/25 01:22:06;;;;;;;4.38;3.45;;;;;;;;;;5095500;28;20277;-62
2022/06/25 01:24:32;;;;;;;4.95;3.20;;;;;;;;;;5095767;28;20020;-37
2022/06/25 01:26:57;;;;;;;3.45;3.15;;;;;;;;;;5077250;28;20469;-37
2022/06/25 01:29:23;;;;;;;6.68;3.53;;;;;;;;;;5095662;28;20034;-36
2022/06/25 01:31:48;;;;;;;5.47;3.05;;;;;;;;;;5077537;28;20032;-37
2022/06/25 01:34:14;;;;;;;6.00;3.50;;;;;;;;;;5077496;28;20426;-38
2022/06/25 01:36:39;;;;;;;5.20;2.97;;;;;;;;;;5095466;28;20531;-58
2022/06/25 01:39:05;;;;;;;3.72;3.42;;;;;;;;;;5095099;28;20042;-63
2022/06/25 01:41:30;;;;;;;3.55;3.25;;;;;;;;;;5095065;28;20020;-37
2022/06/25 01:43:55;;;;;;;5.18;3.47;;;;;;;;;;5095283;28;20024;-40
2022/06/25 01:46:21;;;;;;;5.30;3.45;;;;;;;;;;5095284;28;20024;-47
2022/06/25 01:48:47;;;;;;;5.78;3.38;;;;;;;;;;5094538;28;20048;-43
2022/06/25 01:51:13;;;;;;;5.43;3.47;;;;;;;;;;5095186;28;20032;-37
2022/06/25 01:53:39;;;;;;;4.07;3.47;;;;;;;;;;5095151;28;20028;-46
2022/06/25 01:56:06;;;;;;;5.70;3.55;;;;;;;;;;5095120;28;20024;-49
2022/06/25 01:58:32;;;;;;;5.47;3.30;;;;;;;;;;5094792;28;20024;-47
2022/06/25 02:00:57;;;;;;;6.05;3.45;;;;;;;;;;5094647;28;20028;-37
2022/06/25 02:03:23;;;;;;;11.90;3.40;;;;;;;;;;5095003;28;20028;-37
2022/06/25 02:05:57;;;;;;;8.55;4.00;;;;;;;;;;5094563;28;20016;-37
2022/06/25 02:08:37;;;;;;;6.18;3.85;;;;;;;;;;5094890;28;20097;-37
2022/06/25 02:11:06;;;;;;;3.70;3.40;;;;;;;;;;5094864;28;20057;-37
2022/06/25 02:13:32;;;;;;;3.90;3.50;;;;;;;;;;5094605;28;20050;-36
2022/06/25 02:15:58;;;;;;;4.28;3.67;;;;;;;;;;5094724;28;20027;-40
2022/06/25 02:18:24;;;;;;;5.65;3.95;;;;;;;;;;5094370;28;20031;-40
2022/06/25 02:20:50;;;;;;;3.70;3.40;;;;;;;;;;5076223;28;20078;-40
2022/06/25 02:23:17;;;;;;;4.38;3.97;;;;;;;;;;5094259;28;20554;-40
2022/06/25 02:25:43;;;;;;;7.63;3.78;;;;;;;;;;5094541;28;20036;-56
2022/06/25 02:28:09;;;;;;;4.30;3.90;;;;;;;;;;5094438;28;20032;-37
2022/06/25 02:30:34;;;;;;;5.30;3.75;;;;;;;;;;5094718;28;20032;-36
2022/06/25 02:33:00;;;;;;;12.20;4.32;;;;;;;;;;5094405;28;20027;-36
2022/06/25 02:35:25;;;;;;;4.20;3.72;;;;;;;;;;5094032;28;20057;-36
2022/06/25 02:37:52;;;;;;;4.03;3.65;;;;;;;;;;5093988;28;20032;-37
2022/06/25 02:40:17;;;;;;;4.55;4.10;;;;;;;;;;5093895;28;20270;-38
2022/06/25 02:42:43;;;;;;;4.40;4.00;;;;;;;;;;5094208;28;20272;-37
2022/06/25 02:45:10;;;;;;;5.65;4.30;;;;;;;;;;5093884;28;20035;-37
2022/06/25 02:47:35;;;;;;;6.40;4.18;;;;;;;;;;5094113;28;20028;-37
2022/06/25 02:50:00;;;;;;;5.78;4.00;;;;;;;;;;5093784;28;20035;-53
2022/06/25 02:52:26;;;;;;;4.43;4.00;;;;;;;;;;5093704;28;20123;-36
2022/06/25 02:54:52;;;;;;;5.15;3.92;;;;;;;;;;5093952;28;20099;-60
2022/06/25 03:00:03;;;;;;;5.15;4.25;;;;;;;;;;5092861;28;20515;-45
2022/06/25 03:02:28;;;;;;;7.28;3.92;;;;;;;;;;5093835;28;20031;-37
2022/06/25 03:04:54;;;;;;;5.68;4.35;;;;;;;;;;5093782;28;20452;-40
2022/06/25 03:07:19;;;;;;;4.97;4.07;;;;;;;;;;5093382;28;20118;-40
2022/06/25 03:09:45;;;;;;;10.05;3.95;;;;;;;;;;5093736;28;20039;-37
2022/06/25 03:12:12;;;;;;;8.85;4.07;;;;;;;;;;5093918;28;20091;-58
2022/06/25 03:14:37;;;;;;;8.23;4.20;;;;;;;;;;5093351;28;20016;-42
2022/06/25 03:17:03;;;;;;;9.52;4.50;;;;;;;;;;5093359;28;20027;-58
2022/06/25 03:19:28;;;;;;;6.53;4.57;;;;;;;;;;5093078;28;20072;-62
2022/06/25 03:21:53;;;;;;;5.05;4.55;;;;;;;;;;5093212;28;20021;-56
2022/06/25 03:24:19;;;;;;;4.65;4.18;;;;;;;;;;5093277;28;20030;-62
2022/06/25 03:26:44;;;;;;;5.10;4.25;;;;;;;;;;5093632;28;20020;-42
2022/06/25 03:29:10;;;;;;;7.90;4.45;;;;;;;;;;5093414;28;20118;-37
2022/06/25 03:31:35;;;;;;;5.47;4.47;;;;;;;;;;5093090;28;20468;-53
2022/06/25 03:34:01;;;;;;;5.75;4.05;;;;;;;;;;5093291;28;20028;-37
2022/06/25 03:36:26;;;;;;;4.57;4.18;;;;;;;;;;5093260;28;20413;-58
2022/06/25 03:38:52;;;;;;;4.60;4.20;;;;;;;;;;5093086;28;20503;-49
2022/06/25 03:41:32;;;;;;;4.68;4.20;;;;;;;;;;5092985;28;20083;-38
2022/06/25 03:44:05;;;;;;;8.93;4.60;;;;;;;;;;5093077;28;20028;-57
2022/06/25 03:46:31;;;;;;;4.90;4.00;;;;;;;;;;5093121;28;20069;-39
2022/06/25 03:48:57;;;;;;;6.70;4.25;;;;;;;;;;5092780;28;20028;-61
2022/06/25 03:51:23;;;;;;;4.55;4.15;;;;;;;;;;5093023;28;20036;-62
2022/06/25 03:53:48;;;;;;;4.20;3.80;;;;;;;;;;5093001;28;20383;-61
2022/06/25 03:56:14;;;;;;;4.50;4.10;;;;;;;;;;5092650;28;20380;-37
2022/06/25 03:58:39;;;;;;;7.43;3.90;;;;;;;;;;5092904;28;20059;-52
2022/06/25 04:01:04;;;;;;;4.82;3.90;;;;;;;;;;5074560;28;20401;-63
2022/06/25 04:03:30;;;;;;;4.63;3.97;;;;;;;;;;5092921;28;20025;-59
2022/06/25 04:05:56;;;;;;;4.60;4.07;;;;;;;;;;5092578;28;20578;-62
2022/06/25 04:08:22;;;;;;;5.25;4.20;;;;;;;;;;5092884;28;20032;-60
2022/06/25 04:10:47;;;;;;;4.20;3.80;;;;;;;;;;5075280;28;20373;-63
2022/06/25 04:13:12;;;;;;;7.35;4.30;;;;;;;;;;5099557;28;20128;-63
2022/06/25 04:15:38;;;;;;;8.65;4.07;;;;;;;;;;5099577;28;20467;-46
2022/06/25 04:18:04;;;;;;;4.82;4.00;;;;;;;;;;5099477;28;20450;-50
2022/06/25 04:20:30;;;;;;;7.43;3.75;;;;;;;;;;5099422;28;20400;-51
2022/06/25 04:22:55;;;;;;;4.53;3.80;;;;;;;;;;5099522;28;20020;-54
2022/06/25 04:25:21;;;;;;;5.85;3.90;;;;;;;;;;5099205;28;20052;-64
2022/06/25 04:30:30;;;;;;;6.43;3.80;;;;;;;;;;5099425;28;20034;-62
2022/06/25 04:32:56;;;;;;;4.32;3.00;;;;;;;;;;5099150;28;20103;-38
2022/06/25 04:35:21;;;;;;;4.10;3.70;;;;;;;;;;5080982;28;20062;-64
2022/06/25 04:37:46;;;;;;;5.05;3.70;;;;;;;;;;5099326;28;20056;-63
2022/06/25 04:40:13;;;;;;;6.80;3.80;;;;;;;;;;5099214;28;20426;-55
2022/06/25 04:42:38;;;;;;;5.22;3.83;;;;;;;;;;5099028;28;20063;-55
2022/06/25 04:45:04;;;;;;;4.65;3.30;;;;;;;;;;5099237;28;20484;-38
2022/06/25 04:47:29;;;;;;;6.63;3.42;;;;;;;;;;5098942;28;20024;-47
2022/06/25 04:49:54;;;;;;;4.88;3.53;;;;;;;;;;5099115;28;20111;-55
2022/06/25 04:52:20;;;;;;;3.42;3.13;;;;;;;;;;5099207;28;20470;-46
2022/06/25 04:54:45;;;;;;;3.67;3.38;;;;;;;;;;5098856;28;20066;-58
2022/06/25 04:57:11;;;;;;;4.22;3.30;;;;;;;;;;5099190;28;20063;-65
2022/06/25 04:59:36;;;;;;;5.47;3.42;;;;;;;;;;5099052;28;20024;-57
2022/06/25 05:02:02;;;;;;;5.38;3.45;;;;;;;;;;5099102;28;20479;-61
2022/06/25 05:04:27;;;;;;;3.70;3.40;;;;;;;;;;5099089;28;20032;-40
2022/06/25 05:06:52;;;;;;;3.90;3.50;;;;;;;;;;5098706;28;20460;-45
2022/06/25 05:09:18;;;;;;;5.70;3.50;;;;;;;;;;5099050;28;20117;-38
2022/06/25 05:11:43;;;;;;;4.82;3.10;;;;;;;;;;5099051;28;20381;-39
2022/06/25 05:14:09;;;;;;;4.00;3.60;;;;;;;;;;5098958;28;20035;-58
2022/06/25 05:16:35;;;;;;;5.32;3.47;;;;;;;;;;5080560;28;20500;-63
2022/06/25 05:19:00;;;;;;;3.72;3.10;;;;;;;;;;5098720;28;20055;-63
2022/06/25 05:21:26;;;;;;;4.40;3.33;;;;;;;;;;5098660;28;20383;-57
2022/06/25 05:23:51;;;;;;;5.32;3.28;;;;;;;;;;5095738;28;20031;-60
2022/06/25 05:26:17;;;;;;;5.88;3.30;;;;;;;;;;5095729;28;20031;-50
2022/06/25 05:28:42;;;;;;;5.20;3.25;;;;;;;;;;5095326;28;20020;-53
2022/06/25 05:31:08;;;;;;;5.93;3.45;;;;;;;;;;5095610;28;20024;-60
2022/06/25 05:33:33;;;;;;;4.55;3.30;;;;;;;;;;5095574;28;20032;-66
2022/06/25 05:35:59;;;;;;;7.53;3.30;;;;;;;;;;5095481;28;20034;-64
2022/06/25 05:38:24;;;;;;;5.13;3.40;;;;;;;;;;5095475;28;20464;-66
2022/06/25 05:40:49;;;;;;;4.78;3.40;;;;;;;;;;5095018;28;20040;-53
2022/06/25 05:43:15;;;;;;;5.93;3.40;;;;;;;;;;5095347;28;20254;-38
2022/06/25 05:45:40;;;;;;;4.00;3.08;;;;;;;;;;5095071;28;20035;-48
2022/06/25 05:48:06;;;;;;;4.82;2.95;;;;;;;;;;5094943;28;20380;-48
2022/06/25 05:50:32;;;;;;;4.22;2.95;;;;;;;;;;5095192;28;20244;-68
2022/06/25 05:52:58;;;;;;;7.05;3.30;;;;;;;;;;5077094;28;20098;-67
2022/06/25 05:55:24;;;;;;;5.10;2.97;;;;;;;;;;5094968;28;20032;-60
2022/06/25 05:57:51;;;;;;;2.85;2.65;;;;;;;;;;5094867;28;20028;-62
2022/06/25 06:00:17;;;;;;;4.00;2.95;;;;;;;;;;5094719;28;20085;-49
2022/06/25 06:02:42;;;;;;;5.15;2.72;;;;;;;;;;5094941;28;20024;-64
2022/06/25 06:05:08;;;;;;;6.07;2.90;;;;;;;;;;5094652;28;20024;-44
2022/06/25 06:07:33;;;;;;;9.05;4.10;;;;;;;;;;5094930;28;20042;-65
2022/06/25 06:09:59;;;;;;;5.05;3.67;;;;;;;;;;5094731;28;20052;-65
2022/06/25 06:12:24;;;;;;;3.00;2.42;;;;;;;;;;5094542;28;20032;-65
2022/06/25 06:26:23;;;;;;;4.18;2.58;;;;;;;;;;5089801;27;20711;-37
2022/06/25 06:28:49;;;;;;;5.38;3.08;;;;;;;;;;5090024;28;20086;-38
2022/06/25 06:31:14;;;;;;;6.20;3.50;;;;;;;;;;5089649;28;20154;-38
2022/06/25 06:33:40;;;;;;;10.30;3.42;;;;;;;;;;5089871;28;20074;-36
2022/06/25 06:36:05;;;;;;;8.63;3.00;;;;;;;;;;5089675;28;20528;-37
2022/06/25 06:38:30;;;;;;;5.75;3.05;;;;;;;;;;5089626;28;20055;-40
2022/06/25 06:40:56;;;;;;;6.83;3.00;;;;;;;;;;5088882;28;20030;-36
2022/06/25 06:43:21;;;;;;;4.30;2.63;;;;;;;;;;5089070;28;20257;-40
2022/06/25 06:45:46;;;;;;;4.05;2.67;;;;;;;;;;5088673;28;20060;-37
2022/06/25 06:48:12;;;;;;;6.90;3.40;;;;;;;;;;5087133;28;20031;-37
2022/06/25 06:50:37;;;;;;;4.18;2.72;;;;;;;;;;5087414;28;20024;-56
2022/06/25 06:53:03;;;;;;;4.28;3.10;;;;;;;;;;5084682;28;20551;-40
2022/06/25 06:55:28;;;;;;;5.68;2.55;;;;;;;;;;5087682;28;20535;-61
2022/06/25 06:57:53;;;;;;;7.57;2.97;;;;;;;;;;5086312;28;20036;-40
2022/06/25 07:00:19;;;;;;;5.25;2.95;;;;;;;;;;5087620;28;20372;-40
2022/06/25 07:02:45;;;;;;;7.50;3.38;;;;;;;;;;5087768;28;20054;-48
2022/06/25 07:05:10;;;;;;;6.60;3.30;;;;;;;;;;5087243;28;20110;-52
2022/06/25 07:07:35;;;;;;;4.35;2.70;;;;;;;;;;5087256;28;20033;-41
2022/06/25 07:10:01;;;;;;;5.97;3.00;;;;;;;;;;5086826;28;20039;-39
2022/06/25 07:12:26;;;;;;;5.47;2.83;;;;;;;;;;5086697;28;20180;-42
2022/06/25 07:14:52;;;;;;;5.73;3.00;;;;;;;;;;5087400;28;20090;-42
2022/06/25 07:17:17;;;;;;;5.93;3.30;;;;;;;;;;5087248;28;20264;-41
2022/06/25 07:19:42;;;;;;;6.38;2.90;;;;;;;;;;5087405;28;20310;-40
2022/06/25 07:22:08;;;;;;;5.97;3.25;;;;;;;;;;5087531;28;20028;-49
2022/06/25 07:24:33;;;;;;;5.43;3.35;;;;;;;;;;5086883;28;20454;-55
2022/06/25 07:26:59;;;;;;;5.63;3.42;;;;;;;;;;5074032;28;20071;-41
2022/06/25 07:29:24;;;;;;;6.05;3.17;;;;;;;;;;5073652;28;20464;-41
2022/06/25 07:31:50;;;;;;;11.50;3.20;;;;;;;;;;5072161;28;20547;-52
2022/06/25 07:34:16;;;;;;;7.07;3.53;;;;;;;;;;5073294;28;20038;-58
2022/06/25 07:36:41;;;;;;;7.00;3.22;;;;;;;;;;5073420;28;20029;-60
2022/06/25 07:39:08;;;;;;;10.82;3.20;;;;;;;;;;5072090;28;20035;-56
2022/06/25 07:41:34;;;;;;;6.28;3.30;;;;;;;;;;5073303;28;20547;-58
2022/06/25 07:43:59;;;;;;;5.43;3.20;;;;;;;;;;5073394;28;20139;-59
2022/06/25 07:46:24;;;;;;;5.38;3.33;;;;;;;;;;5073323;28;20468;-59
2022/06/25 07:48:50;;;;;;;8.13;3.08;;;;;;;;;;5073510;28;20487;-51
2022/06/25 07:53:59;;;;;;;10.02;5.10;;;;;;;;;;5073484;28;20387;-59
2022/06/25 07:56:25;;;;;;;8.65;3.50;;;;;;;;;;5073302;28;20024;-59
2022/06/25 07:58:51;;;;;;;7.32;2.90;;;;;;;;;;5072989;28;20430;-55
2022/06/25 08:01:16;;;;;;;7.07;3.55;;;;;;;;;;5073051;28;20025;-39
2022/06/25 08:03:41;;;;;;;10.50;3.33;;;;;;;;;;5073151;28;20032;-59
2022/06/25 08:06:07;;;;;;;7.93;3.35;;;;;;;;;;5073273;28;20062;-59
2022/06/25 08:08:33;;;;;;;5.28;2.90;;;;;;;;;;5073350;28;20024;-59
2022/06/25 08:10:59;;;;;;;9.10;3.25;;;;;;;;;;5074251;28;20021;-58
2022/06/25 08:13:26;;;;;;;9.07;2.92;;;;;;;;;;5073817;28;20388;-57
2022/06/25 08:15:51;;;;;;;8.20;2.97;;;;;;;;;;5072835;28;20025;-59
2022/06/25 08:18:17;;;;;;;8.05;2.80;;;;;;;;;;5074189;28;20025;-58
2022/06/25 08:20:43;;;;;;;7.85;3.30;;;;;;;;;;5074190;28;20108;-51
2022/06/25 08:23:09;;;;;;;4.70;2.85;;;;;;;;;;5074370;28;20111;-59
2022/06/25 08:25:34;;;;;;;7.43;4.13;;;;;;;;;;5073996;28;20065;-55
2022/06/25 08:28:00;;;;;;;4.30;2.97;;;;;;;;;;5074310;28;20054;-43
2022/06/25 08:30:26;;;;;;;5.47;3.17;;;;;;;;;;5074194;28;20078;-56
2022/06/25 08:32:53;;;;;;;14.82;3.72;;;;;;;;;;5073879;28;20170;-57
2022/06/25 08:35:18;;;;;;;8.20;3.15;;;;;;;;;;5074079;28;20095;-55
2022/06/25 08:37:46;;;;;;;4.70;2.83;;;;;;;;;;5071551;28;20116;-41
2022/06/25 08:40:13;;;;;;;7.30;3.60;;;;;;;;;;5073648;28;20025;-51
2022/06/25 08:42:38;;;;;;;15.07;6.40;;;;;;;;;;5073607;28;20028;-54
2022/06/25 08:45:05;;;;;;;9.40;4.50;;;;;;;;;;5073791;28;20044;-53
2022/06/25 08:47:30;;;;;;;7.70;3.95;;;;;;;;;;5073857;28;20056;-54
2022/06/25 08:49:57;;;;;;;16.60;8.00;;;;;;;;;;5073614;28;20101;-52
2022/06/25 08:52:22;;;;;;;14.38;5.40;;;;;;;;;;5073522;28;20044;-55
2022/06/25 08:54:48;;;;;;;7.28;4.85;;;;;;;;;;5072248;28;20373;-56
2022/06/25 08:57:15;;;;;;;18.70;8.38;;;;;;;;;;5073488;28;20043;-56
2022/06/25 08:59:42;;;;;;;12.60;5.60;;;;;;;;;;5073365;28;20017;-54
2022/06/25 09:02:07;;;;;;;9.57;5.40;;;;;;;;;;5073660;28;20035;-38
2022/06/25 09:04:32;;;;;;;10.52;5.18;;;;;;;;;;5073454;28;20612;-50
2022/06/25 09:07:13;;;;;;;9.45;4.43;;;;;;;;;;5073595;28;20051;-55
2022/06/25 09:09:44;;;;;;;5.97;4.30;;;;;;;;;;5073416;28;20078;-38
2022/06/25 09:12:13;;;;;;;7.97;4.60;;;;;;;;;;5073323;28;20025;-56
2022/06/25 09:14:38;;;;;;;13.68;5.60;;;;;;;;;;5073085;28;20407;-54
2022/06/25 09:17:06;;;;;;;15.32;8.50;;;;;;;;;;5073068;28;20032;-56
2022/06/25 09:19:41;;;;;;;21.67;5.15;;;;;;;;;;5073245;28;20054;-56
2022/06/25 09:22:10;;;;;;;13.45;5.00;;;;;;;;;;5072788;28;20539;-38
2022/06/25 09:24:41;;;;;;;10.73;5.40;;;;;;;;;;5072841;28;20128;-38
2022/06/25 09:27:07;;;;;;;12.35;4.47;;;;;;;;;;5073089;28;20051;-40
2022/06/25 09:29:40;;;;;;;12.00;3.75;;;;;;;;;;5072764;28;20384;-46
2022/06/25 09:32:06;;;;;;;10.23;4.40;;;;;;;;;;5072502;28;20056;-39
2022/06/25 09:34:36;;;;;;;6.40;3.78;;;;;;;;;;5072606;28;20028;-51
2022/06/25 09:37:26;;;;;;;7.70;3.47;;;;;;;;;;5072719;28;20107;-44
2022/06/25 09:39:54;;;;;;;8.13;3.67;;;;;;;;;;5072968;28;20112;-55
2022/06/25 09:42:20;;;;;;;11.87;4.83;;;;;;;;;;5072875;28;20388;-40
2022/06/25 09:44:46;;;;;;;8.73;4.60;;;;;;;;;;5072842;28;20260;-41
2022/06/25 09:47:13;;;;;;;13.07;4.47;;;;;;;;;;5072948;28;20103;-56
2022/06/25 09:49:39;;;;;;;7.90;4.60;;;;;;;;;;5072297;28;20115;-39
2022/06/25 09:52:05;;;;;;;8.48;4.03;;;;;;;;;;5072766;28;20056;-51
2022/06/25 09:54:32;;;;;;;9.60;3.40;;;;;;;;;;5072296;28;20060;-43
2022/06/25 09:57:02;;;;;;;9.13;3.80;;;;;;;;;;5072602;28;20066;-39
2022/06/25 09:59:30;;;;;;;7.60;3.70;;;;;;;;;;5071174;28;20349;-38
2022/06/25 10:01:57;;;;;;;7.25;2.83;;;;;;;;;;5072814;28;20054;-38
2022/06/25 10:04:23;;;;;;;5.85;3.22;;;;;;;;;;5072501;28;20028;-53
2022/06/25 10:06:51;;;;;;;11.60;3.13;;;;;;;;;;5072545;28;20036;-46
2022/06/25 10:09:18;;;;;;;6.35;3.05;;;;;;;;;;5072726;28;20028;-52
2022/06/25 10:11:44;;;;;;;7.93;3.30;;;;;;;;;;5072683;28;20028;-38
2022/06/25 10:14:09;;;;;;;6.07;2.80;;;;;;;;;;5072350;28;20502;-39
2022/06/25 10:16:35;;;;;;;7.80;2.60;;;;;;;;;;5072106;28;20070;-38
2022/06/25 10:19:01;;;;;;;8.48;2.53;;;;;;;;;;5071919;28;20024;-37
2022/06/25 10:21:27;;;;;;;8.50;3.05;;;;;;;;;;5071761;28;20031;-44
2022/06/25 10:23:57;;;;;;;9.55;3.08;;;;;;;;;;5072195;28;20024;-37
2022/06/25 10:26:24;;;;;;;4.97;2.63;;;;;;;;;;5071954;28;20045;-50
2022/06/25 10:28:49;;;;;;;9.80;2.50;;;;;;;;;;5072562;28;20434;-37
2022/06/25 10:31:17;;;;;;;10.02;3.10;;;;;;;;;;5072170;28;20029;-38
2022/06/25 10:34:02;;;;;;;4.25;2.40;;;;;;;;;;5072092;28;20522;-40
2022/06/25 10:36:45;;;;;;;4.18;2.33;;;;;;;;;;5072180;28;20032;-37
2022/06/25 10:39:23;;;;;;;3.88;2.50;;;;;;;;;;5072376;28;20051;-40
2022/06/25 10:45:00;;;;;;;4.32;2.30;;;;;;;;;;5072185;28;20044;-39
2022/06/25 10:47:39;;;;;;;3.38;2.30;;;;;;;;;;5072080;28;20025;-49
2022/06/25 10:50:20;;;;;;;6.97;2.45;;;;;;;;;;5072368;28;20380;-37
2022/06/25 10:53:08;;;;;;;5.88;2.28;;;;;;;;;;5072003;28;20483;-52
2022/06/25 10:55:48;;;;;;;4.15;2.50;;;;;;;;;;5071871;28;20085;-36
2022/06/25 10:58:18;;;;;;;5.70;3.95;;;;;;;;;;5071974;28;20553;-48
2022/06/25 11:00:54;;;;;;;17.73;3.75;;;;;;;;;;5072809;28;20085;-52
2022/06/25 11:03:30;;;;;;;8.88;3.22;;;;;;;;;;5075456;28;20483;-51
2022/06/25 11:05:57;;;;;;;10.20;2.88;;;;;;;;;;5073868;28;20059;-38
2022/06/25 11:08:35;;;;;;;3.92;2.53;;;;;;;;;;5075517;28;20480;-47
2022/06/25 11:11:01;;;;;;;9.15;3.30;;;;;;;;;;5075800;28;20031;-37
2022/06/25 11:13:27;;;;;;;7.28;3.47;;;;;;;;;;5075399;28;20468;-37
2022/06/25 11:15:53;;;;;;;11.27;3.05;;;;;;;;;;5075458;28;20501;-37
2022/06/25 11:18:18;;;;;;;9.10;2.60;;;;;;;;;;5075431;28;20039;-40
2022/06/25 11:20:46;;;;;;;8.93;2.58;;;;;;;;;;5074632;28;20111;-37
2022/06/25 11:23:13;;;;;;;14.35;2.60;;;;;;;;;;5074042;28;20028;-38
2022/06/25 11:28:48;;;;;;;4.40;2.42;;;;;;;;;;5075486;28;20085;-37
2022/06/25 11:31:22;;;;;;;5.07;2.40;;;;;;;;;;5075482;28;20376;-50
2022/06/25 11:33:50;;;;;;;3.08;1.88;;;;;;;;;;5073439;28;20033;-53
2022/06/25 11:36:16;;;;;;;8.02;2.50;;;;;;;;;;5073543;28;20384;-50
2022/06/25 11:38:43;;;;;;;8.13;2.08;;;;;;;;;;5073465;28;20025;-49
2022/06/25 11:41:22;;;;;;;5.65;2.10;;;;;;;;;;5073701;28;20033;-44
2022/06/25 11:43:48;;;;;;;3.72;2.20;;;;;;;;;;5073265;28;20563;-51
2022/06/25 11:46:18;;;;;;;6.78;2.38;;;;;;;;;;5073307;28;20075;-50
2022/06/25 11:48:46;;;;;;;4.95;2.15;;;;;;;;;;5073400;28;20480;-50
2022/06/25 11:51:13;;;;;;;5.97;2.50;;;;;;;;;;5073281;28;20044;-53
2022/06/25 11:53:40;;;;;;;6.85;2.00;;;;;;;;;;5073253;28;20043;-52
2022/06/25 11:56:06;;;;;;;11.63;2.25;;;;;;;;;;5073196;28;20606;-52
2022/06/25 11:58:34;;;;;;;6.22;2.33;;;;;;;;;;5071786;28;20048;-46
2022/06/25 12:01:01;;;;;;;3.50;1.63;;;;;;;;;;5072366;28;20031;-52
2022/06/25 12:03:28;;;;;;;9.45;2.28;;;;;;;;;;5072806;28;20028;-51
2022/06/25 12:05:58;;;;;;;5.20;1.92;;;;;;;;;;5072678;28;20111;-49
2022/06/25 12:08:25;;;;;;;5.13;1.85;;;;;;;;;;5072978;28;20484;-45
2022/06/25 12:10:51;;;;;;;38.17;3.85;;;;;;;;;;5072773;28;20031;-43
2022/06/25 12:13:20;;;;;;;4.68;1.80;;;;;;;;;;5072658;28;20389;-44
2022/06/25 12:15:46;;;;;;;;;;;;;;;;;;5073470;28;20024;-42
2022/06/25 12:18:11;;;;;;;4.07;1.50;;;;;;;;;;5072443;28;19923;-37
2022/06/25 12:20:54;;;;;;;6.18;1.98;;;;;;;;;;5072557;28;20502;-37
2022/06/25 12:23:20;;;;;;;9.65;1.60;;;;;;;;;;5072382;28;20036;-37
2022/06/25 12:25:47;;;;;;;4.05;1.58;;;;;;;;;;5072302;28;20052;-38
2022/06/25 12:28:13;;;;;;;4.25;1.70;;;;;;;;;;5072225;28;20484;-47
2022/06/25 12:30:38;;;;;;;5.47;1.50;;;;;;;;;;5072103;28;20051;-51
2022/06/25 12:33:15;;;;;;;3.90;1.60;;;;;;;;;;5072059;28;20468;-40
2022/06/25 12:35:45;;;;;;;3.13;1.58;;;;;;;;;;5071777;28;20897;-56
2022/06/25 12:38:12;;;;;;;5.07;1.58;;;;;;;;;;5072054;28;20104;-51
2022/06/25 12:40:42;;;;;;;5.30;1.70;;;;;;;;;;5071969;28;20029;-39
2022/06/25 12:43:09;;;;;;;5.05;1.83;;;;;;;;;;5072281;28;20126;-40
2022/06/25 12:45:40;;;;;;;2.88;1.85;;;;;;;;;;5072097;28;20028;-51
2022/06/25 12:48:09;;;;;;;3.05;1.33;;;;;;;;;;5071951;28;20549;-37
2022/06/25 12:50:36;;;;;;;5.07;1.65;;;;;;;;;;5072075;28;20037;-38
2022/06/25 12:53:20;;;;;;;5.20;1.50;;;;;;;;;;5072447;28;20445;-38
2022/06/25 12:55:48;;;;;;;2.97;1.33;;;;;;;;;;5072020;28;20033;-38
2022/06/25 12:58:14;;;;;;;2.17;1.33;;;;;;;;;;5071711;28;20032;-38
2022/06/25 13:00:45;;;;;;;5.18;1.58;;;;;;;;;;5071475;28;20460;-49
2022/06/25 13:03:11;;;;;;;6.32;1.40;;;;;;;;;;5072193;28;20528;-50
2022/06/25 13:05:37;;;;;;;4.43;1.52;;;;;;;;;;5072013;28;20036;-38
2022/06/25 13:08:03;;;;;;;5.45;1.40;;;;;;;;;;5071950;28;20081;-53
2022/06/25 13:10:30;;;;;;;5.10;2.28;;;;;;;;;;5071436;28;20107;-42
2022/06/25 13:12:55;;;;;;;3.15;1.58;;;;;;;;;;5071929;28;20024;-44
2022/06/25 13:15:22;;;;;;;4.90;1.95;;;;;;;;;;5071837;28;20123;-37
2022/06/25 13:17:48;;;;;;;5.15;1.90;;;;;;;;;;5071821;28;20032;-38
2022/06/25 13:20:15;;;;;;;7.13;2.00;;;;;;;;;;5071879;28;20031;-37
2022/06/25 13:22:41;;;;;;;4.93;1.65;;;;;;;;;;5071574;28;20052;-51
2022/06/25 13:25:09;;;;;;;5.28;2.13;;;;;;;;;;5070098;28;20381;-53
2022/06/25 13:27:35;;;;;;;3.90;1.50;;;;;;;;;;5071326;28;20111;-52
2022/06/25 13:30:01;;;;;;;3.08;1.42;;;;;;;;;;5070908;28;20028;-46
2022/06/25 13:32:27;;;;;;;1.60;1.30;;;;;;;;;;5071116;28;20095;-57
2022/06/25 13:34:53;;;;;;;4.32;1.80;;;;;;;;;;5070477;28;20571;-38
2022/06/25 13:37:19;;;;;;;9.02;1.73;;;;;;;;;;5070619;28;20093;-50
2022/06/25 13:39:44;;;;;;;3.10;1.42;;;;;;;;;;5069664;28;20036;-49
2022/06/25 13:42:10;;;;;;;8.13;1.70;;;;;;;;;;5070921;28;20033;-55
2022/06/25 13:44:36;;;;;;;2.95;1.40;;;;;;;;;;5067878;28;20535;-50
2022/06/25 13:47:05;;;;;;;2.92;1.10;;;;;;;;;;5070706;28;20025;-57
2022/06/25 13:49:31;;;;;;;7.68;1.40;;;;;;;;;;5070846;28;20016;-45
2022/06/25 13:51:57;;;;;;;2.22;1.15;;;;;;;;;;5071031;28;20025;-45
2022/06/25 13:54:23;;;;;;;6.13;1.40;;;;;;;;;;5069950;28;20067;-38
2022/06/25 13:56:49;;;;;;;5.00;1.38;;;;;;;;;;5071034;28;20475;-37
2022/06/25 13:59:14;;;;;;;2.33;1.33;;;;;;;;;;5070972;28;20043;-38
2022/06/25 14:01:40;;;;;;;3.53;1.45;;;;;;;;;;5070967;28;20106;-37
2022/06/25 14:04:05;;;;;;;8.52;1.60;;;;;;;;;;5070956;28;20123;-53
2022/06/25 14:06:32;;;;;;;5.95;1.20;;;;;;;;;;5071116;28;20108;-38
2022/06/25 14:08:57;;;;;;;2.55;1.15;;;;;;;;;;5070898;28;20033;-48
2022/06/25 14:11:24;;;;;;;3.80;1.40;;;;;;;;;;5070858;28;20031;-52
2022/06/25 14:13:50;;;;;;;2.92;1.10;;;;;;;;;;5071059;28;20028;-50
2022/06/25 14:16:15;;;;;;;2.65;0.98;;;;;;;;;;5070129;28;20017;-55
2022/06/25 14:18:41;;;;;;;3.97;1.15;;;;;;;;;;5071208;28;20032;-47
2022/06/25 14:21:06;;;;;;;3.50;1.20;;;;;;;;;;5070623;28;20028;-45
2022/06/25 14:23:34;;;;;;;2.95;0.93;;;;;;;;;;5069322;28;20036;-53
2022/06/25 14:26:00;;;;;;;3.65;1.10;;;;;;;;;;5070463;28;20098;-38
2022/06/25 14:28:25;;;;;;;5.88;1.00;;;;;;;;;;5070802;28;20040;-41
2022/06/25 14:30:51;;;;;;;1.15;1.00;;;;;;;;;;5070641;28;20036;-44
2022/06/25 14:33:17;;;;;;;1.77;1.35;;;;;;;;;;5070827;28;20067;-38
2022/06/25 14:42:20;;;;;;;4.10;1.20;;;;;;;;;;5070768;28;20529;-46
2022/06/25 14:43:56;;;;;;;2.78;1.00;;;;;;;;;;5074846;28;20098;-37
2022/06/25 14:46:21;;;;;;;3.13;0.90;;;;;;;;;;5074167;28;20472;-38
2022/06/25 14:48:47;;;;;;;3.60;1.00;;;;;;;;;;5073719;28;20063;-43
2022/06/25 14:51:12;;;;;;;6.93;1.10;;;;;;;;;;5074327;28;20039;-37
2022/06/25 14:53:38;;;;;;;9.13;1.08;;;;;;;;;;5073535;28;20016;-54
2022/06/25 14:56:03;;;;;;;2.70;1.10;;;;;;;;;;5072847;28;20498;-55
2022/06/25 14:58:28;;;;;;;1.80;0.95;;;;;;;;;;5073911;28;20036;-52
2022/06/25 15:00:54;;;;;;;5.07;0.90;;;;;;;;;;5073692;28;20035;-43
2022/06/25 15:03:19;;;;;;;2.40;0.82;;;;;;;;;;5074174;28;20028;-49
2022/06/25 15:05:46;;;;;;;3.30;1.05;;;;;;;;;;5073996;28;20475;-56
2022/06/25 15:08:13;;;;;;;1.90;0.90;;;;;;;;;;5074431;28;20032;-46
2022/06/25 15:10:38;;;;;;;2.97;1.13;;;;;;;;;;5074152;28;20032;-38
2022/06/25 15:13:03;;;;;;;2.50;1.20;;;;;;;;;;5074185;28;20032;-39